createdAt,value
2023-05-20T00:01:07.264Z,4.07
2023-05-20T00:06:10.448Z,3.40
2023-05-20T00:11:15.081Z,3.30
2023-05-20T00:16:18.162Z,3.07
2023-05-20T00:21:21.315Z,3.37
2023-05-20T00:26:26.168Z,3.30
2023-05-20T00:31:31.299Z,4.17
2023-05-20T00:36:34.270Z,3.10
2023-05-20T00:41:39.197Z,3.90
2023-05-20T00:46:42.389Z,3.60
2023-05-20T00:51:45.544Z,3.80
2023-05-20T00:56:50.228Z,3.53
2023-05-20T01:01:53.489Z,3.93
2023-05-20T01:06:57.565Z,3.40
2023-05-20T01:12:09.761Z,4.10
2023-05-20T01:17:17.859Z,3.40
2023-05-20T01:22:21.537Z,3.60
2023-05-20T01:27:26.595Z,3.70
2023-05-20T01:32:36.897Z,3.20
2023-05-20T01:37:41.512Z,3.47
2023-05-20T01:42:52.950Z,3.57
2023-05-20T01:47:56.449Z,3.97
2023-05-20T01:52:59.718Z,3.00
2023-05-20T01:58:04.276Z,3.73
2023-05-20T02:03:07.355Z,4.20
2023-05-20T02:08:12.198Z,3.63
2023-05-20T02:13:16.568Z,3.60
2023-05-20T02:18:19.634Z,3.83
2023-05-20T02:23:22.688Z,3.93
2023-05-20T02:28:27.125Z,3.50
2023-05-20T02:33:31.534Z,4.03
2023-05-20T02:38:34.611Z,4.17
2023-05-20T02:43:39.159Z,3.77
2023-05-20T02:48:42.346Z,3.50
2023-05-20T02:53:45.615Z,3.53
2023-05-20T02:58:50.218Z,3.90
2023-05-20T03:03:53.892Z,4.17
2023-05-20T03:08:57.091Z,3.70
2023-05-20T03:14:01.841Z,4.20
2023-05-20T03:19:05.192Z,3.53
2023-05-20T03:24:08.476Z,3.87
2023-05-20T03:29:13.005Z,4.10
2023-05-20T03:34:16.264Z,3.90
2023-05-20T03:39:20.717Z,3.93
2023-05-20T03:44:25.245Z,4.20
2023-05-20T03:49:28.370Z,4.50
2023-05-20T03:54:31.635Z,4.40
2023-05-20T03:59:36.629Z,4.87
2023-05-20T04:04:43.205Z,3.80
2023-05-20T04:09:46.832Z,4.47
2023-05-20T04:14:52.705Z,4.90
2023-05-20T04:19:56.150Z,4.47
2023-05-20T04:24:59.425Z,3.90
2023-05-20T04:30:04.534Z,3.87
2023-05-20T04:35:13.881Z,4.30
2023-05-20T04:40:21.424Z,3.60
2023-05-20T04:45:26.865Z,4.13
2023-05-20T04:50:29.936Z,3.63
2023-05-20T04:55:33.236Z,3.53
2023-05-20T05:00:38.817Z,4.50
2023-05-20T05:05:43.060Z,3.80
2023-05-20T05:10:46.946Z,4.17
2023-05-20T05:15:59.466Z,3.73
2023-05-20T05:21:05.065Z,3.90
2023-05-20T05:26:09.954Z,4.27
2023-05-20T05:31:15.278Z,4.30
2023-05-20T05:36:19.030Z,4.10
2023-05-20T05:41:22.384Z,4.00
2023-05-20T05:46:27.059Z,3.90
2023-05-20T05:51:31.452Z,3.83
2023-05-20T05:56:34.799Z,3.80
2023-05-20T06:01:39.520Z,4.00
2023-05-20T06:06:42.861Z,4.33
2023-05-20T06:11:46.006Z,4.10
2023-05-20T06:16:50.969Z,3.90
2023-05-20T06:21:54.127Z,3.77
2023-05-20T06:26:57.441Z,3.63
2023-05-20T06:32:02.013Z,3.93
2023-05-20T06:37:06.056Z,3.57
2023-05-20T06:42:09.987Z,4.00
2023-05-20T06:47:15.972Z,3.70
2023-05-20T06:52:19.979Z,4.13
2023-05-20T06:57:23.624Z,3.43
2023-05-20T07:02:28.170Z,3.67
2023-05-20T07:07:31.659Z,3.80
2023-05-20T07:12:37.074Z,3.43
2023-05-20T07:17:42.359Z,3.67
2023-05-20T07:22:45.838Z,3.33
2023-05-20T07:27:57.829Z,3.10
2023-05-20T07:33:02.336Z,3.25
2023-05-20T07:38:05.691Z,3.25
2023-05-20T07:43:08.928Z,3.00
2023-05-20T07:48:14.319Z,2.97
2023-05-20T07:53:17.651Z,2.88
2023-05-20T07:58:21.589Z,2.85
2023-05-20T08:03:29.142Z,2.88
2023-05-20T08:08:38.269Z,2.55
2023-05-20T08:13:50.102Z,3.17
2023-05-20T08:18:55.304Z,2.00
2023-05-20T08:23:59.210Z,2.28
2023-05-20T08:29:02.587Z,2.33
2023-05-20T08:34:08.111Z,2.10
2023-05-20T08:39:11.433Z,2.08
2023-05-20T08:44:14.644Z,2.25
2023-05-20T08:49:20.600Z,2.00
2023-05-20T08:54:26.826Z,1.65
2023-05-20T08:59:30.161Z,1.90
2023-05-20T09:04:34.748Z,1.92
2023-05-20T09:09:37.924Z,2.20
2023-05-20T09:14:41.018Z,3.38
2023-05-20T09:19:45.668Z,1.67
2023-05-20T09:24:50.155Z,1.70
2023-05-20T09:29:53.354Z,1.70
2023-05-20T09:35:01.423Z,1.90
2023-05-20T09:40:09.544Z,1.45
2023-05-20T09:45:12.721Z,1.92
2023-05-20T09:50:17.354Z,2.08
2023-05-20T09:55:23.993Z,2.47
2023-05-20T10:00:27.019Z,1.65
2023-05-20T10:05:37.397Z,2.67
2023-05-20T10:10:50.627Z,2.30
2023-05-20T10:16:05.690Z,2.25
2023-05-20T10:21:24.574Z,1.85
2023-05-20T10:26:37.695Z,3.97
2023-05-20T10:31:46.203Z,3.47
2023-05-20T10:36:59.408Z,2.20
2023-05-20T10:42:09.506Z,1.55
2023-05-20T10:52:20.523Z,1.15
2023-05-20T10:57:24.507Z,1.50
2023-05-20T11:02:34.718Z,1.75
2023-05-20T11:07:39.251Z,1.40
2023-05-20T11:12:42.526Z,2.05
2023-05-20T11:17:54.562Z,1.88
2023-05-20T11:22:59.110Z,1.83
2023-05-20T11:28:02.183Z,1.55
2023-05-20T11:33:06.273Z,2.50
2023-05-20T11:38:11.428Z,1.40
2023-05-20T11:43:16.331Z,1.50
2023-05-20T11:48:20.695Z,1.33
2023-05-20T11:53:26.291Z,1.30
2023-05-20T11:58:31.595Z,1.42
2023-05-20T12:03:34.977Z,1.42
2023-05-20T12:08:39.671Z,1.40
2023-05-20T12:13:44.704Z,1.38
2023-05-20T12:18:48.240Z,1.60
2023-05-20T12:23:57.706Z,1.50
2023-05-20T12:29:01.495Z,1.40
2023-05-20T12:34:04.605Z,1.13
2023-05-20T12:39:09.538Z,1.45
2023-05-20T12:44:12.697Z,1.33
2023-05-20T12:49:15.965Z,1.50
2023-05-20T12:54:21.843Z,1.20
2023-05-20T12:59:24.873Z,1.30
2023-05-20T13:04:28.062Z,1.30
2023-05-20T13:09:33.048Z,1.27
2023-05-20T13:14:36.099Z,1.70
2023-05-20T13:19:39.181Z,1.60
2023-05-20T13:24:43.632Z,1.30
2023-05-20T13:29:46.751Z,1.20
2023-05-20T13:34:50.001Z,1.50
2023-05-20T13:39:55.028Z,1.23
2023-05-20T13:44:58.008Z,1.17
2023-05-20T13:50:03.050Z,1.13
2023-05-20T13:55:09.609Z,1.48
2023-05-20T14:00:13.884Z,1.63
2023-05-20T14:05:17.216Z,1.20
2023-05-20T14:10:26.850Z,1.42
2023-05-20T14:15:34.254Z,1.73
2023-05-20T14:20:46.602Z,1.23
2023-05-20T14:25:58.940Z,1.50
2023-05-20T14:31:09.851Z,1.10
2023-05-20T14:36:13.094Z,1.52
2023-05-20T14:41:31.819Z,1.30
2023-05-20T14:46:58.652Z,1.42
2023-05-20T14:52:05.046Z,1.30
2023-05-20T14:57:17.567Z,1.17
2023-05-20T15:02:21.039Z,1.55
2023-05-20T15:07:24.430Z,1.30
2023-05-20T15:12:29.321Z,1.38
2023-05-20T15:17:32.464Z,1.38
2023-05-20T15:22:35.856Z,1.27
2023-05-20T15:27:41.967Z,1.40
2023-05-20T15:32:45.316Z,1.40
2023-05-20T15:37:48.682Z,1.95
2023-05-20T15:42:56.711Z,2.10
2023-05-20T15:47:59.832Z,2.22
2023-05-20T15:53:04.030Z,1.60
2023-05-20T15:58:08.598Z,1.27
2023-05-20T16:03:12.143Z,1.55
2023-05-20T16:08:15.255Z,1.42
2023-05-20T16:13:19.762Z,1.40
2023-05-20T16:18:23.508Z,1.73
2023-05-20T16:23:26.606Z,1.95
2023-05-20T16:28:31.230Z,1.90
2023-05-20T16:33:34.746Z,1.73
2023-05-20T16:38:38.051Z,1.63
2023-05-20T16:43:42.421Z,1.60
2023-05-20T16:48:45.578Z,1.38
2023-05-20T16:53:48.713Z,1.90
2023-05-20T16:58:53.482Z,1.80
2023-05-20T17:03:56.657Z,1.60
2023-05-20T17:08:59.782Z,1.40
2023-05-20T17:14:05.234Z,1.40
2023-05-20T17:19:08.631Z,1.60
2023-05-20T17:24:11.699Z,1.40
2023-05-20T17:29:16.296Z,1.35
2023-05-20T17:34:19.406Z,1.60
2023-05-20T17:39:22.399Z,1.48
2023-05-20T17:44:26.891Z,1.55
2023-05-20T17:49:31.163Z,2.03
2023-05-20T17:54:34.279Z,1.48
2023-05-20T17:59:41.651Z,1.80
2023-05-20T18:04:44.723Z,2.30
2023-05-20T18:09:47.843Z,2.20
2023-05-20T18:14:53.741Z,2.40
2023-05-20T18:19:56.690Z,2.20
2023-05-20T18:24:59.681Z,1.80
2023-05-20T18:30:04.651Z,2.03
2023-05-20T18:35:08.774Z,1.90
2023-05-20T18:40:12.704Z,2.20
2023-05-20T18:45:17.172Z,2.20
2023-05-20T18:50:20.167Z,2.42
2023-05-20T18:55:23.880Z,2.13
2023-05-20T19:00:28.387Z,2.13
2023-05-20T19:05:31.454Z,1.80
2023-05-20T19:10:34.591Z,2.42
2023-05-20T19:15:38.974Z,2.08
2023-05-20T19:20:42.129Z,1.85
2023-05-20T19:25:45.857Z,2.00
2023-05-20T19:30:50.615Z,1.60
2023-05-20T19:35:53.621Z,1.70
2023-05-20T19:40:56.714Z,1.30
2023-05-20T19:46:01.660Z,1.60
2023-05-20T19:51:04.942Z,1.55
2023-05-20T19:56:08.360Z,1.70
2023-05-20T20:01:13.126Z,1.33
2023-05-20T20:06:16.368Z,1.70
2023-05-20T20:11:19.532Z,1.90
2023-05-20T20:16:24.035Z,1.63
2023-05-20T20:21:27.134Z,1.73
2023-05-20T20:26:30.896Z,1.83
2023-05-20T20:31:35.870Z,1.60
2023-05-20T20:36:39.761Z,2.08
2023-05-20T20:41:45.466Z,1.75
2023-05-20T20:46:51.625Z,1.92
2023-05-20T20:51:54.779Z,1.80
2023-05-20T20:57:00.007Z,2.08
2023-05-20T21:02:04.638Z,1.90
2023-05-20T21:07:08.548Z,1.92
2023-05-20T21:12:11.693Z,1.60
2023-05-20T21:17:16.125Z,1.80
2023-05-20T21:22:19.055Z,1.80
2023-05-20T21:27:22.123Z,1.83
2023-05-20T21:32:26.823Z,2.22
2023-05-20T21:37:30.274Z,1.52
2023-05-20T21:42:33.602Z,2.20
2023-05-20T21:47:38.361Z,1.95
2023-05-20T21:52:41.453Z,1.92
2023-05-20T21:57:48.444Z,1.75
2023-05-20T22:02:53.746Z,2.13
2023-05-20T22:07:57.287Z,1.92
2023-05-20T22:13:02.081Z,2.28
2023-05-20T22:18:07.731Z,2.20
2023-05-20T22:23:11.479Z,1.92
2023-05-20T22:28:14.549Z,2.20
2023-05-20T22:33:19.648Z,2.83
2023-05-20T22:38:23.990Z,2.20
2023-05-20T22:43:27.125Z,2.20
2023-05-20T22:48:31.574Z,2.05
2023-05-20T22:53:34.980Z,2.15
2023-05-20T22:58:39.815Z,2.00
2023-05-20T23:03:46.855Z,2.00
2023-05-20T23:08:50.394Z,2.20
2023-05-20T23:13:53.523Z,2.63
2023-05-20T23:18:58.060Z,2.03
2023-05-20T23:24:01.456Z,1.77
2023-05-20T23:29:04.668Z,2.30
2023-05-20T23:34:10.496Z,2.87
2023-05-20T23:39:15.607Z,2.57
2023-05-20T23:44:19.685Z,2.23
2023-05-20T23:49:27.256Z,2.07
2023-05-20T23:54:34.300Z,2.30
2023-05-20T23:59:37.313Z,2.23
